createdAt,value
2023-03-21T00:03:46.846Z,25.50
2023-03-21T00:12:11.816Z,22.90
2023-03-21T00:20:35.053Z,25.80
2023-03-21T00:28:58.737Z,23.70
2023-03-21T00:37:21.897Z,21.90
2023-03-21T00:45:46.612Z,22.10
2023-03-21T00:54:13.091Z,19.40
2023-03-21T01:02:38.119Z,20.40
2023-03-21T01:11:05.661Z,19.30
2023-03-21T01:19:48.352Z,18.50
2023-03-21T01:28:14.053Z,18.00
2023-03-21T01:36:37.292Z,17.70
2023-03-21T01:45:27.265Z,16.30
2023-03-21T01:53:51.140Z,18.20
2023-03-21T02:02:23.302Z,16.70
2023-03-21T02:11:07.767Z,23.60
2023-03-21T02:20:09.444Z,40.20
2023-03-21T02:28:49.371Z,16.70
2023-03-21T02:37:38.589Z,20.90
2023-03-21T02:46:11.034Z,17.20
2023-03-21T02:54:47.525Z,15.20
2023-03-21T03:03:28.025Z,32.10
2023-03-21T03:12:55.225Z,22.10
2023-03-21T03:22:05.088Z,27.70
2023-03-21T03:30:42.220Z,19.70
2023-03-21T03:39:14.873Z,15.00
2023-03-21T03:47:59.888Z,15.10
2023-03-21T03:56:28.028Z,15.70
2023-03-21T04:04:53.121Z,18.80
2023-03-21T04:13:16.626Z,16.70
2023-03-21T04:22:06.741Z,16.90
2023-03-21T04:30:34.328Z,15.60
2023-03-21T04:39:12.364Z,14.80
2023-03-21T04:47:36.475Z,15.80
2023-03-21T04:56:00.811Z,14.70
2023-03-21T05:04:26.235Z,15.30
2023-03-21T05:12:57.387Z,15.80
2023-03-21T05:21:24.732Z,15.20
2023-03-21T05:30:45.314Z,14.30
2023-03-21T05:39:22.944Z,14.80
2023-03-21T05:48:01.032Z,16.30
2023-03-21T05:56:28.089Z,16.10
2023-03-21T06:04:59.736Z,14.90
2023-03-21T06:13:23.035Z,14.50
2023-03-21T06:21:46.307Z,16.60
2023-03-21T06:30:10.389Z,15.10
2023-03-21T06:38:41.564Z,14.90
2023-03-21T06:47:04.734Z,15.20
2023-03-21T06:55:29.757Z,14.80
2023-03-21T07:03:56.759Z,13.40
2023-03-21T07:12:20.403Z,11.90
2023-03-21T07:20:59.916Z,13.10
2023-03-21T07:29:23.318Z,12.00
2023-03-21T07:37:46.311Z,13.90
2023-03-21T07:46:12.194Z,13.10
2023-03-21T07:54:35.422Z,11.80
2023-03-21T08:02:59.751Z,12.20
2023-03-21T08:11:23.758Z,12.10
2023-03-21T08:19:46.732Z,11.90
2023-03-21T08:28:09.986Z,13.10
2023-03-21T08:36:34.360Z,11.30
2023-03-21T08:44:57.409Z,8.20
2023-03-21T08:53:20.556Z,9.60
2023-03-21T09:01:43.658Z,10.30
2023-03-21T09:10:20.592Z,10.30
2023-03-21T09:18:47.409Z,11.40
2023-03-21T09:27:10.449Z,9.00
2023-03-21T09:35:33.524Z,9.80
2023-03-21T09:44:28.938Z,9.40
2023-03-21T09:53:05.417Z,9.70
2023-03-21T10:01:34.136Z,9.10
2023-03-21T10:10:00.824Z,8.50
2023-03-21T10:18:27.486Z,7.90
2023-03-21T10:26:52.513Z,6.40
2023-03-21T10:35:15.841Z,6.60
2023-03-21T10:43:41.132Z,3.20
2023-03-21T10:52:08.705Z,3.50
2023-03-21T11:00:36.413Z,4.00
2023-03-21T11:09:48.162Z,3.80
2023-03-21T11:18:20.490Z,3.40
2023-03-21T11:26:49.907Z,2.90
2023-03-21T11:35:20.452Z,2.70
2023-03-21T11:43:52.762Z,3.50
2023-03-21T11:52:41.735Z,3.50
2023-03-21T12:01:35.140Z,3.40
2023-03-21T12:10:13.224Z,3.50
2023-03-21T12:18:56.247Z,3.00
2023-03-21T12:28:03.808Z,3.30
2023-03-21T12:36:38.204Z,3.50
2023-03-21T12:45:19.240Z,3.00
2023-03-21T12:54:17.754Z,3.80
2023-03-21T13:02:47.246Z,4.10
2023-03-21T13:11:16.676Z,3.10
2023-03-21T13:19:51.746Z,1.40
2023-03-21T13:28:28.164Z,1.50
2023-03-21T13:36:52.887Z,1.50
2023-03-21T13:45:50.296Z,2.70
2023-03-21T13:54:22.636Z,3.90
2023-03-21T14:02:58.588Z,3.60
2023-03-21T14:11:24.032Z,3.50
2023-03-21T14:19:47.391Z,3.50
2023-03-21T14:28:30.108Z,3.10
2023-03-21T14:36:58.169Z,2.30
2023-03-21T14:53:46.237Z,2.40
2023-03-21T15:02:46.480Z,2.20
2023-03-21T15:11:12.853Z,2.70
2023-03-21T15:19:40.215Z,2.80
2023-03-21T15:28:05.399Z,3.90
2023-03-21T15:36:34.218Z,1.90
2023-03-21T21:24:57.628Z,86.40
2023-03-21T21:34:27.716Z,77.20
2023-03-21T21:43:40.019Z,70.30
2023-03-21T21:52:55.173Z,72.80
2023-03-21T22:01:57.736Z,69.70
2023-03-21T22:10:46.862Z,75.10
2023-03-21T22:19:33.820Z,74.90
2023-03-21T22:28:44.267Z,71.30
2023-03-21T22:37:45.882Z,72.90
2023-03-21T22:46:18.143Z,69.30
2023-03-21T22:55:19.022Z,102.50
2023-03-21T23:04:50.903Z,123.40
2023-03-21T23:13:58.728Z,107.60
2023-03-21T23:23:15.761Z,78.10
